Randolph AFB, Texas
Current Conditions -  °F | °C
As of 7:58 AM on Saturday 25 Oct 2014 (Local Time) from KRND Reporting Station
Clear Clear  
Wind Chill: 60°   Ceiling: Unl
Heat Index: 60°   Visibility: 10mi
Dew Point: 56°   Wind: 2mph
Humidity: 87%   Direction: 320°NW
Pressure: 30.16"   Gusts: NA
Location:  29.5519°N, 98.3081°W
Report Text: KRND 251258Z AUTO 32002KT 10SM CLR 16/13 A3016 RMK AO2 SLP209 T01560134
Loading
Personal Weather Stations






























Interactive Weather Map
Tropical Storm Tracking
New forecast layout! Learn more

10-Day Weather Forecast

Advertisements
Track Severe Weather on mobile